Bookmark and Share
Track history (hours):
 

Diane G

Last reported at 2014-Apr-16 13:26 UTC. Time now 2014-Apr-18 00:28 UTC.
Position N 33°43' W 118°42'.

Length 35 m; draft 2.5 m.

Type: Military. MMSI: 369970281.

NotesDate/timePositionNaut miles runAvg speedWind from/ knotsBaromVisibWave heightAir tempDewpointWater temp
2014-Apr-16 13:26N 33°43' W 118°42'8 8.9
2014-Apr-16 12:33N 33°38' W 118°35'10 8.7
2014-Apr-16 11:27N 33°31' W 118°27'8 8.7
2014-Apr-16 10:30N 33°26' W 118°20'9 9.1
2014-Apr-16 09:33N 33°20' W 118°12'9 8.8
2014-Apr-16 08:33N 33°13' W 118°05'9 9.0
2014-Apr-16 07:33N 33°07' W 117°57'9 9.0
2014-Apr-16 06:33N 33°01' W 117°49'9 8.8
2014-Apr-16 05:33N 32°54' W 117°43'9 8.8
2014-Apr-16 04:33N 32°48' W 117°35'9 9.0
2014-Apr-16 03:33N 32°42' W 117°27'8 7.9
2014-Apr-16 02:33N 32°37' W 117°20'2 2.0
2014-Apr-16 01:33N 32°38' W 117°18'3 2.9
2014-Apr-16 00:33N 32°40' W 117°15'4 3.8
2014-Apr-15 23:34N 32°37' W 117°19'1 1.2
2014-Apr-15 22:31N 32°36' W 117°20'5 5.3
2014-Apr-15 21:33N 32°38' W 117°25'2 1.5
2014-Apr-15 20:32N 32°37' W 117°23'5 4.5
2014-Apr-15 19:19N 32°37' W 117°17'5 6.8
2014-Apr-15 18:32N 32°42' W 117°14'3 2.6
2014-Apr-15 17:31N 32°43' W 117°11'0 0.0
2014-Apr-15 16:31N 32°43' W 117°11'0 0.0
2014-Apr-15 15:31N 32°43' W 117°11'0 0.0
2014-Apr-15 14:31N 32°43' W 117°11'0 0.0
2014-Apr-15 12:31N 32°43' W 117°11'0 0.0
2014-Apr-15 11:31N 32°43' W 117°11'0 0.0
2014-Apr-15 10:31N 32°43' W 117°11'0 0.0
2014-Apr-15 09:31N 32°43' W 117°11'0 0.0
2014-Apr-15 08:31N 32°43' W 117°11'0 0.0
2014-Apr-15 07:31N 32°43' W 117°11'0 0.0
2014-Apr-15 06:31N 32°43' W 117°11'3 3.2
2014-Apr-15 05:34N 32°41' W 117°14'11 5.4
2014-Apr-15 03:34N 32°38' W 117°26'8 7.7
2014-Apr-15 02:34N 32°38' W 117°17'6 6.3
2014-Apr-15 01:34N 32°43' W 117°13'1 1.3
2014-Apr-15 00:31N 32°43' W 117°11'0 0.0
2014-Apr-14 23:31N 32°43' W 117°11'3 3.1
2014-Apr-14 22:34N 32°41' W 117°14'6 6.0
2014-Apr-14 21:34N 32°38' W 117°20'2 1.9
2014-Apr-14 20:33N 32°36' W 117°21'1 1.2
2014-Apr-14 19:34N 32°37' W 117°23'2 2.1
2014-Apr-14 18:34N 32°38' W 117°20'6 6.1
2014-Apr-14 17:33N 32°41' W 117°14'3 3.0
2014-Apr-14 16:32N 32°43' W 117°11'0 0.0
2014-Apr-14 14:32N 32°43' W 117°11'0 0.0
2014-Apr-14 13:32N 32°43' W 117°11'0 0.0
2014-Apr-14 11:32N 32°43' W 117°11'0 0.0
2014-Apr-14 10:32N 32°43' W 117°11'0 0.0
2014-Apr-14 09:32N 32°43' W 117°11'0 0.0
2014-Apr-14 08:32N 32°43' W 117°11'0 0.0
2014-Apr-14 07:32N 32°43' W 117°11'0 0.0
2014-Apr-14 06:32N 32°43' W 117°11'0 0.2
2014-Apr-14 05:33N 32°43' W 117°12'12 1.6
2014-Apr-13 22:33N 32°39' W 117°24'3 3.3
2014-Apr-13 21:33N 32°38' W 117°21'3 3.0
2014-Apr-13 20:33N 32°39' W 117°24'5 4.8
2014-Apr-13 19:32N 32°38' W 117°18'3 3.1
2014-Apr-13 18:26N 32°35' W 117°17'0 0.3
2014-Apr-13 17:15N 32°36' W 117°17'3 3.9
2014-Apr-13 16:33N 32°38' W 117°18'5 5.4
2014-Apr-13 15:33N 32°42' W 117°23'7 6.9
2014-Apr-13 14:33N 32°46' W 117°29'8 8.2
2014-Apr-13 13:34N 32°52' W 117°36'8 8.0
2014-Apr-13 12:33N 32°58' W 117°43'8 7.9
2014-Apr-13 11:33N 33°03' W 117°50'8 8.0
2014-Apr-13 10:34N 33°08' W 117°58'  
2014-Apr-10 19:31N 33°00' W 118°33'0 0.0
2014-Apr-10 18:33N 33°00' W 118°33'0 0.0
2014-Apr-10 17:31N 33°00' W 118°33'0 0.0
2014-Apr-10 16:24N 33°00' W 118°33'0 0.0
2014-Apr-10 15:33N 33°00' W 118°33'0 0.0
2014-Apr-10 14:33N 33°00' W 118°33'0 0.0
2014-Apr-10 13:33N 33°00' W 118°33'0 0.0
2014-Apr-10 12:33N 33°00' W 118°33'0 0.0
2014-Apr-10 11:33N 33°00' W 118°33'0 0.0
2014-Apr-10 10:33N 33°00' W 118°33'0 0.0
2014-Apr-10 09:33N 33°00' W 118°33'0 0.0
2014-Apr-10 08:33N 33°00' W 118°33'0 0.0
2014-Apr-10 07:33N 33°00' W 118°33'0 0.0
2014-Apr-10 06:33N 33°00' W 118°33'0 0.0
2014-Apr-10 05:33N 33°00' W 118°33'0 0.0
2014-Apr-10 04:33N 33°00' W 118°33'0 0.0
2014-Apr-10 03:33N 33°00' W 118°33'0 0.0
2014-Apr-10 02:28N 33°00' W 118°33'0 0.0
2014-Apr-10 01:33N 33°00' W 118°33'0 0.1
2014-Apr-10 00:30N 33°00' W 118°33'0 0.1
2014-Apr-09 23:34N 33°00' W 118°33'3 3.2
2014-Apr-09 22:33N 32°59' W 118°30'6 6.4
2014-Apr-09 21:33N 32°59' W 118°22'8 8.5
2014-Apr-09 20:33N 32°58' W 118°12'6 5.6
2014-Apr-09 19:34N 32°57' W 118°05'5 4.9
2014-Apr-09 18:33N 32°57' W 118°11'2 1.1
2014-Apr-09 16:33N 32°59' W 118°12'3 3.1
2014-Apr-09 15:33N 32°59' W 118°15'3 3.4
2014-Apr-09 14:33N 32°60' W 118°19'5 3.7
2014-Apr-09 13:06N 33°01' W 118°25'2 4.4
2014-Apr-09 12:33N 33°02' W 118°23'4 4.0
2014-Apr-09 11:34N 33°04' W 118°18'7 6.6
2014-Apr-09 10:33N 33°09' W 118°24'8 7.9
2014-Apr-09 09:33N 33°15' W 118°29'24 8.0
2014-Apr-09 06:33N 33°35' W 118°45'8 8.3
2014-Apr-09 05:32N 33°43' W 118°50'9 8.7
2014-Apr-09 04:32N 33°50' W 118°56'9 8.9
2014-Apr-09 03:31N 33°57' W 119°02'  
2014-Apr-06 22:12N 33°24' W 119°19'3 5.0
2014-Apr-06 21:33N 33°21' W 119°19'1 1.3
2014-Apr-06 20:33N 33°20' W 119°20'3 2.7
2014-Apr-06 19:33N 33°17' W 119°19'5 4.8
2014-Apr-06 18:33N 33°21' W 119°22'5 4.7
2014-Apr-06 17:33N 33°26' W 119°24'2 2.2
2014-Apr-06 16:33N 33°28' W 119°25'  

Dump ship's entire track history

sailing weather and tide predictions

Diane G — DIANEG — position and weather